createdAt,value
2018-08-09T00:00:47.389Z,95502.6
2018-08-09T00:01:49.572Z,95503.1
2018-08-09T00:02:51.740Z,95501.9
2018-08-09T00:03:53.921Z,95500.6
2018-08-09T00:04:56.357Z,95500.6
2018-08-09T00:05:58.538Z,95506.7
2018-08-09T00:07:00.980Z,95503.4
2018-08-09T00:08:02.886Z,95499
2018-08-09T00:09:04.782Z,95504.1
2018-08-09T00:10:06.958Z,95497.9
2018-08-09T00:11:09.172Z,95500
2018-08-09T00:12:11.318Z,95498.5
2018-08-09T00:13:13.498Z,95499
2018-08-09T00:14:15.685Z,95500.3
2018-08-09T00:15:18.127Z,95492.6
2018-08-09T00:16:20.304Z,95492.2
2018-08-09T00:17:22.750Z,95488.6
2018-08-09T00:18:24.921Z,95488.4
2018-08-09T00:19:27.369Z,95492.1
2018-08-09T00:20:29.834Z,95483.2
2018-08-09T00:21:32.289Z,95486.3
2018-08-09T00:22:34.479Z,95483.6
2018-08-09T00:23:36.929Z,95489
2018-08-09T00:24:39.124Z,95484.7
2018-08-09T00:25:41.570Z,95486.9
2018-08-09T00:26:43.460Z,95485.4
2018-08-09T00:27:45.341Z,95486.5
2018-08-09T00:28:47.235Z,95483.7
2018-08-09T00:29:48.870Z,95481.1
2018-08-09T00:30:51.054Z,95475.5
2018-08-09T00:31:53.498Z,95475.1
2018-08-09T00:32:55.960Z,95475.4
2018-08-09T00:33:58.133Z,95472.1
2018-08-09T00:35:00.590Z,95470.4
2018-08-09T00:36:02.516Z,95462.9
2018-08-09T00:37:04.718Z,95467.8
2018-08-09T00:38:07.165Z,95466.3
2018-08-09T00:39:09.607Z,95464.8
2018-08-09T00:40:11.795Z,95460.7
2018-08-09T00:41:14.249Z,95459.3
2018-08-09T00:42:16.396Z,95456.7
2018-08-09T00:43:18.607Z,95453.4
2018-08-09T00:44:21.046Z,95457.8
2018-08-09T00:45:23.217Z,95451.5
2018-08-09T00:46:25.669Z,95454.7
2018-08-09T00:47:27.556Z,95450
2018-08-09T00:48:29.452Z,95444.7
2018-08-09T00:49:31.376Z,95446.6
2018-08-09T00:50:33.819Z,95442
2018-08-09T00:51:35.994Z,95445.9
2018-08-09T00:52:38.454Z,95438.5
2018-08-09T00:53:40.899Z,95430.5
2018-08-09T00:54:43.348Z,95429.7
2018-08-09T00:55:45.510Z,95434.3
2018-08-09T00:56:47.960Z,95430.3
2018-08-09T00:57:50.401Z,95431
2018-08-09T00:58:52.845Z,95426.2
2018-08-09T00:59:55.019Z,95425.4
2018-08-09T01:00:57.193Z,95429.4
2018-08-09T01:01:59.630Z,95428.7
2018-08-09T01:03:01.555Z,95423.9
2018-08-09T01:04:04.008Z,95425.7
2018-08-09T01:05:06.186Z,95423.4
2018-08-09T01:06:08.360Z,95424.4
2018-08-09T01:07:10.545Z,95425.5
2018-08-09T01:08:12.716Z,95424.8
2018-08-09T01:09:14.622Z,95422.5
2018-08-09T01:10:16.802Z,95423.8
2018-08-09T01:11:19.019Z,95425.3
2018-08-09T01:12:21.182Z,95427.2
2018-08-09T01:13:23.355Z,95423.5
2018-08-09T01:14:25.540Z,95424.9
2018-08-09T01:15:27.978Z,95427.8
2018-08-09T01:16:30.447Z,95425.8
2018-08-09T01:17:32.629Z,95421.3
2018-08-09T01:18:34.779Z,95422.3
2018-08-09T01:19:37.232Z,95415.1
2018-08-09T01:20:39.396Z,95416.6
2018-08-09T01:21:41.577Z,95418
2018-08-09T01:22:44.027Z,95412.2
2018-08-09T01:23:46.473Z,95410.2
2018-08-09T01:24:48.916Z,95410.5
2018-08-09T01:25:51.115Z,95411.5
2018-08-09T01:26:53.295Z,95413.1
2018-08-09T01:27:55.734Z,95409.4
2018-08-09T01:28:57.646Z,95410.7
2018-08-09T01:29:59.577Z,95413.4
2018-08-09T01:31:01.465Z,95411.1
2018-08-09T01:32:03.642Z,95411.6
2018-08-09T01:33:05.520Z,95413.3
2018-08-09T01:34:07.714Z,95412.4
2018-08-09T01:35:09.930Z,95412.2
2018-08-09T01:36:12.119Z,95415.9
2018-08-09T01:37:14.267Z,95413.6
2018-08-09T01:38:16.147Z,95416.7
2018-08-09T01:39:18.314Z,95418.6
2018-08-09T01:40:20.491Z,95420.5
2018-08-09T01:41:22.674Z,95419.2
2018-08-09T01:42:24.581Z,95424.8
2018-08-09T01:43:26.738Z,95419.3
2018-08-09T01:44:28.380Z,95424.4
2018-08-09T01:45:30.827Z,95422.3
2018-08-09T01:46:33.285Z,95418.3
2018-08-09T01:47:35.188Z,95419.4
2018-08-09T01:48:37.335Z,95417.2
2018-08-09T01:49:39.785Z,95419.8
2018-08-09T01:50:41.973Z,95421.1
2018-08-09T01:51:44.158Z,95422.4
2018-08-09T01:52:46.603Z,95426.7
2018-08-09T01:53:49.050Z,95424.7
2018-08-09T01:54:51.226Z,95425.4
2018-08-09T01:55:53.407Z,95428.2
2018-08-09T01:56:55.596Z,95425.2
2018-08-09T01:57:58.025Z,95427.2
2018-08-09T01:59:00.206Z,95428.8
2018-08-09T02:00:02.648Z,95426.2
2018-08-09T02:01:04.824Z,95427.3
2018-08-09T02:02:06.756Z,95432.1
2018-08-09T02:03:08.656Z,95428.1
2018-08-09T02:04:11.104Z,95425
2018-08-09T02:05:13.553Z,95426.4
2018-08-09T02:06:15.832Z,95428.3
2018-08-09T02:07:17.795Z,95428
2018-08-09T02:08:19.974Z,95427.2
2018-08-09T02:09:22.153Z,95429
2018-08-09T02:10:24.338Z,95427.9
2018-08-09T02:11:26.796Z,95427
2018-08-09T02:12:29.240Z,95422.1
2018-08-09T02:13:31.677Z,95421.5
2018-08-09T02:14:34.124Z,95421.4
2018-08-09T02:15:36.269Z,95417.6
2018-08-09T02:16:38.177Z,95414.9
2018-08-09T02:17:40.629Z,95417.2
2018-08-09T02:18:43.075Z,95416.5
2018-08-09T02:19:45.522Z,95413.2
2018-08-09T02:20:47.683Z,95416.8
2018-08-09T02:21:49.551Z,95414
2018-08-09T02:22:51.719Z,95417
2018-08-09T02:23:53.340Z,95417.1
2018-08-09T02:24:55.516Z,95410.9
2018-08-09T02:25:57.430Z,95413.7
2018-08-09T02:26:59.612Z,95410.7
2018-08-09T02:28:01.801Z,95410.2
2018-08-09T02:29:04.243Z,95413.9
2018-08-09T02:30:06.426Z,95413.9
2018-08-09T02:31:08.887Z,95415.7
2018-08-09T02:32:11.067Z,95412.7
2018-08-09T02:33:13.518Z,95414.4
2018-08-09T02:34:15.957Z,95411.8
2018-08-09T02:35:18.180Z,95409.2
2018-08-09T02:36:20.629Z,95407.1
2018-08-09T02:37:23.086Z,95406.2
2018-08-09T02:38:25.531Z,95405.7
2018-08-09T02:39:27.974Z,95405.7
2018-08-09T02:40:30.131Z,95402.3
2018-08-09T02:41:32.309Z,95405.9
2018-08-09T02:42:34.748Z,95403.8
2018-08-09T02:43:36.637Z,95406.9
2018-08-09T02:44:38.805Z,95401.6
2018-08-09T02:45:41.250Z,95402.2
2018-08-09T02:46:43.640Z,95397
2018-08-09T02:47:45.656Z,95400.7
2018-08-09T02:48:48.112Z,95398.5
2018-08-09T02:49:50.354Z,95391.6
2018-08-09T02:50:52.246Z,95395.3
2018-08-09T02:51:54.695Z,95396.4
2018-08-09T02:52:56.607Z,95398.1
2018-08-09T02:53:58.212Z,95397.6
2018-08-09T02:55:00.141Z,95400
2018-08-09T02:56:02.592Z,95395.5
2018-08-09T02:57:04.778Z,95394.7
2018-08-09T02:58:07.236Z,95398.2
2018-08-09T02:59:09.155Z,95394.9
2018-08-09T03:00:11.597Z,95401
2018-08-09T03:01:13.766Z,95397.8
2018-08-09T03:02:15.651Z,95396.1
2018-08-09T03:03:17.807Z,95392.1
2018-08-09T03:04:19.983Z,95393.2
2018-08-09T03:05:22.452Z,95390.3
2018-08-09T03:06:24.603Z,95390.7
2018-08-09T03:07:26.532Z,95388.9
2018-08-09T03:08:28.982Z,95388.7
2018-08-09T03:09:31.139Z,95391.8
2018-08-09T03:10:33.600Z,95391.5
2018-08-09T03:11:36.038Z,95392.5
2018-08-09T03:12:38.245Z,95391
2018-08-09T03:13:40.686Z,95390.3
2018-08-09T03:14:42.558Z,95395
2018-08-09T03:15:44.728Z,95393
2018-08-09T03:16:46.913Z,95389.9
2018-08-09T03:17:49.354Z,95391.1
2018-08-09T03:18:50.998Z,95391.9
2018-08-09T03:19:53.168Z,95388.7
2018-08-09T03:20:54.807Z,95389.6
2018-08-09T03:21:56.446Z,95386.3
2018-08-09T03:22:58.907Z,95381.9
2018-08-09T03:24:01.358Z,95377.5
2018-08-09T03:25:03.803Z,95381.6
2018-08-09T03:26:05.977Z,95386.7
2018-08-09T03:27:07.849Z,95379.6
2018-08-09T03:28:09.751Z,95387.9
2018-08-09T03:29:11.941Z,95392.9
2018-08-09T03:30:13.822Z,95386.8
2018-08-09T03:31:15.999Z,95387.2
2018-08-09T03:32:17.904Z,95384.4
2018-08-09T03:33:20.079Z,95382.8
2018-08-09T03:34:22.501Z,95377
2018-08-09T03:35:24.669Z,95379.6
2018-08-09T03:36:26.594Z,95382.8
2018-08-09T03:37:28.751Z,95380.1
2018-08-09T03:38:30.937Z,95381.1
2018-08-09T03:39:33.081Z,95381.2
2018-08-09T03:40:35.277Z,95381.5
2018-08-09T03:41:37.726Z,95383.7
2018-08-09T03:42:39.877Z,95379.8
2018-08-09T03:43:42.348Z,95378.8
2018-08-09T03:44:44.520Z,95376.1
2018-08-09T03:45:46.696Z,95371.5
2018-08-09T03:46:48.567Z,95371.1
2018-08-09T03:47:51.011Z,95370.5
2018-08-09T03:48:53.446Z,95370.8
2018-08-09T03:49:55.330Z,95374.9
2018-08-09T03:50:57.519Z,95375.1
2018-08-09T03:51:59.465Z,95377.6
2018-08-09T03:53:01.584Z,95375.5
2018-08-09T03:54:03.490Z,95376.9
2018-08-09T03:55:05.393Z,95377.3
2018-08-09T03:56:07.567Z,95377.3
2018-08-09T03:57:09.716Z,95378.3
2018-08-09T03:58:11.667Z,95376
2018-08-09T03:59:13.278Z,95377.8
2018-08-09T04:00:15.150Z,95378.2
2018-08-09T04:01:17.328Z,95377.3
2018-08-09T04:02:19.206Z,95376.2
2018-08-09T04:03:21.388Z,95377
2018-08-09T04:04:23.568Z,95378.3
2018-08-09T04:05:25.729Z,95376.2
2018-08-09T04:06:27.886Z,95374.9
2018-08-09T04:07:30.339Z,95376.4
2018-08-09T04:08:32.805Z,95379.7
2018-08-09T04:09:34.995Z,95378.5
2018-08-09T04:10:37.170Z,95380.6
2018-08-09T04:11:39.763Z,95384.9
2018-08-09T04:12:41.634Z,95382.9
2018-08-09T04:13:43.815Z,95383.7
2018-08-09T04:14:46.261Z,95385.7
2018-08-09T04:15:48.442Z,95388
2018-08-09T04:16:50.578Z,95388.7
2018-08-09T04:17:53.159Z,95386
2018-08-09T04:18:55.371Z,95393.1
2018-08-09T04:19:57.261Z,95391.6
2018-08-09T04:20:59.433Z,95394.5
2018-08-09T04:22:01.343Z,95395.4
2018-08-09T04:23:03.479Z,95394.1
2018-08-09T04:24:05.671Z,95391.4
2018-08-09T04:25:07.857Z,95393.9
2018-08-09T04:26:10.309Z,95396.4
2018-08-09T04:27:11.917Z,95396.1
2018-08-09T04:28:14.087Z,95398.9
2018-08-09T04:29:16.240Z,95398.8
2018-08-09T04:30:18.436Z,95401
2018-08-09T04:31:20.875Z,95399.8
2018-08-09T04:32:23.336Z,95394.6
2018-08-09T04:33:25.517Z,95394.6
2018-08-09T04:34:27.957Z,95395.5
2018-08-09T04:35:30.129Z,95396.5
2018-08-09T04:36:32.577Z,95394.3
2018-08-09T04:37:35.022Z,95395.9
2018-08-09T04:38:37.194Z,95394.3
2018-08-09T04:39:39.362Z,95396
2018-08-09T04:40:41.819Z,95394.1
2018-08-09T04:41:43.998Z,95394.4
2018-08-09T04:42:45.888Z,95392
2018-08-09T04:43:48.066Z,95393.4
2018-08-09T04:44:50.536Z,95391.8
2018-08-09T04:45:52.989Z,95392.3
2018-08-09T04:46:55.444Z,95396.6
2018-08-09T04:47:57.616Z,95390.6
2018-08-09T04:49:00.119Z,95396.7
2018-08-09T04:50:02.574Z,95400.3
2018-08-09T04:51:05.030Z,95399.8
2018-08-09T04:52:06.937Z,95402.1
2018-08-09T04:53:09.389Z,95402.1
2018-08-09T04:54:11.562Z,95406.8
2018-08-09T04:55:14.007Z,95411.2
2018-08-09T04:56:16.467Z,95407.8
2018-08-09T04:57:18.343Z,95413.2
2018-08-09T04:58:20.967Z,95410.9
2018-08-09T04:59:23.514Z,95416.7
2018-08-09T05:00:25.952Z,95417
2018-08-09T05:01:27.858Z,95417.2
2018-08-09T05:02:30.313Z,95417.4
2018-08-09T05:03:32.488Z,95417.2
2018-08-09T05:04:34.646Z,95419.7
2018-08-09T05:05:36.558Z,95417.1
2018-08-09T05:06:39.013Z,95411.1
2018-08-09T05:07:41.188Z,95415.8
2018-08-09T05:08:43.642Z,95412.9
2018-08-09T05:09:46.089Z,95415.1
2018-08-09T05:10:47.997Z,95415.7
2018-08-09T05:11:50.177Z,95411.4
2018-08-09T05:12:52.356Z,95413.5
2018-08-09T05:13:54.536Z,95411
2018-08-09T05:14:56.982Z,95418.8
2018-08-09T05:15:59.280Z,95415.2
2018-08-09T05:17:01.533Z,95419.2
2018-08-09T05:18:03.151Z,95419.4
2018-08-09T05:19:05.589Z,95423
2018-08-09T05:20:07.765Z,95421.8
2018-08-09T05:21:09.936Z,95420.9
2018-08-09T05:22:12.111Z,95414.8
2018-08-09T05:23:14.649Z,95414.6
2018-08-09T05:24:16.519Z,95419.7
2018-08-09T05:25:18.397Z,95413.9
2018-08-09T05:26:20.680Z,95418.2
2018-08-09T05:27:22.813Z,95416.3
2018-08-09T05:28:24.729Z,95418.6
2018-08-09T05:29:26.993Z,95413.4
2018-08-09T05:30:29.470Z,95418.2
2018-08-09T05:31:31.411Z,95413
2018-08-09T05:32:33.307Z,95420.2
2018-08-09T05:33:35.759Z,95418
2018-08-09T05:34:38.202Z,95421.5
2018-08-09T05:35:40.651Z,95423
2018-08-09T05:36:42.269Z,95423.7
2018-08-09T05:37:44.419Z,95419.8
2018-08-09T05:38:46.598Z,95421.7
2018-08-09T05:39:48.776Z,95423.3
2018-08-09T05:40:50.958Z,95420
2018-08-09T05:41:53.132Z,95419.9
2018-08-09T05:42:55.322Z,95423.7
2018-08-09T05:43:57.765Z,95429.9
2018-08-09T05:44:59.643Z,95426
2018-08-09T05:46:02.088Z,95425.7
2018-08-09T05:47:04.287Z,95426.8
2018-08-09T05:48:06.466Z,95424.4
2018-08-09T05:49:08.924Z,95425.8
2018-08-09T05:50:11.168Z,95425.2
2018-08-09T05:51:13.375Z,95428
2018-08-09T05:52:15.585Z,95433.8
2018-08-09T05:53:18.295Z,95429.5
2018-08-09T05:54:19.925Z,95429.1
2018-08-09T05:55:22.100Z,95435.9
2018-08-09T05:56:24.571Z,95432.6
2018-08-09T05:57:26.726Z,95434.7
2018-08-09T05:58:29.423Z,95436.6
2018-08-09T05:59:31.563Z,95435.5
2018-08-09T06:00:34.056Z,95436.2
2018-08-09T06:01:36.230Z,95436.3
2018-08-09T06:02:38.401Z,95439.3
2018-08-09T06:03:40.852Z,95438.5
2018-08-09T06:04:42.771Z,95438.4
2018-08-09T06:05:45.441Z,95435.2
2018-08-09T06:06:47.667Z,95436.2
2018-08-09T06:07:49.825Z,95433.2
2018-08-09T06:08:52.277Z,95435.3
2018-08-09T06:09:54.459Z,95434.1
2018-08-09T06:10:56.652Z,95435.6
2018-08-09T06:11:58.283Z,95438.6
2018-08-09T06:13:00.735Z,95435.8
2018-08-09T06:14:02.910Z,95440.8
2018-08-09T06:15:05.077Z,95440.9
2018-08-09T06:16:07.217Z,95441.1
2018-08-09T06:17:09.664Z,95441.5
2018-08-09T06:18:11.853Z,95442.6
2018-08-09T06:19:14.034Z,95445.2
2018-08-09T06:20:16.478Z,95445
2018-08-09T06:21:18.647Z,95444.9
2018-08-09T06:22:21.093Z,95442.1
2018-08-09T06:23:23.260Z,95447.8
2018-08-09T06:24:25.742Z,95443.4
2018-08-09T06:25:28.198Z,95444.9
2018-08-09T06:26:30.651Z,95448.7
2018-08-09T06:27:32.320Z,95444.5
2018-08-09T06:28:34.022Z,95445.8
2018-08-09T06:29:36.581Z,95446.8
2018-08-09T06:30:39.023Z,95443.3
2018-08-09T06:31:41.487Z,95445.8
2018-08-09T06:32:43.653Z,95439.2
2018-08-09T06:33:45.565Z,95439.7
2018-08-09T06:34:48.008Z,95444.5
2018-08-09T06:35:50.489Z,95440
2018-08-09T06:36:52.958Z,95441.1
2018-08-09T06:37:55.408Z,95439.6
2018-08-09T06:38:57.594Z,95437.9
2018-08-09T06:39:59.770Z,95438.4
2018-08-09T06:41:01.956Z,95439.3
2018-08-09T06:42:04.420Z,95438
2018-08-09T06:43:06.899Z,95438.7
2018-08-09T06:44:08.815Z,95441.3
2018-08-09T06:45:10.749Z,95441.2
2018-08-09T06:46:12.664Z,95439.8
2018-08-09T06:47:14.588Z,95442.7
2018-08-09T06:48:17.035Z,95441.1
2018-08-09T06:49:19.192Z,95444.3
2018-08-09T06:50:21.367Z,95446.9
2018-08-09T06:51:23.826Z,95442.4
2018-08-09T06:52:25.734Z,95445
2018-08-09T06:53:27.936Z,95445
2018-08-09T06:54:30.381Z,95448.4
2018-08-09T06:55:32.846Z,95444.8
2018-08-09T06:56:35.038Z,95445.2
2018-08-09T06:57:37.485Z,95446.5
2018-08-09T06:58:39.671Z,95445.4
2018-08-09T06:59:41.849Z,95448.3
2018-08-09T07:00:44.030Z,95441.9
2018-08-09T07:01:46.211Z,95440.8
2018-08-09T07:02:48.110Z,95438.7
2018-08-09T07:03:50.548Z,95440
2018-08-09T07:04:53.000Z,95441.4
2018-08-09T07:05:55.185Z,95441.1
2018-08-09T07:06:57.880Z,95440.2
2018-08-09T07:08:00.491Z,95439.3
2018-08-09T07:09:02.671Z,95438.2
2018-08-09T07:10:04.817Z,95437.2
2018-08-09T07:11:07.270Z,95439.2
2018-08-09T07:12:09.419Z,95437.1
2018-08-09T07:13:11.566Z,95439.1
2018-08-09T07:14:14.013Z,95434.2
2018-08-09T07:15:16.461Z,95431.3
2018-08-09T07:16:18.915Z,95431.7
2018-08-09T07:17:21.095Z,95437.1
2018-08-09T07:18:23.543Z,95435.3
2018-08-09T07:19:25.427Z,95434.4
2018-08-09T07:20:27.592Z,95432.9
2018-08-09T07:21:29.847Z,95431.6
2018-08-09T07:22:32.031Z,95429.9
2018-08-09T07:23:33.679Z,95432.7
2018-08-09T07:24:35.856Z,95431.4
2018-08-09T07:25:38.061Z,95430.3
2018-08-09T07:26:40.507Z,95426
2018-08-09T07:27:42.704Z,95426.3
2018-08-09T07:28:44.627Z,95426.3
2018-08-09T07:29:47.086Z,95429.6
2018-08-09T07:30:49.277Z,95429.6
2018-08-09T07:31:51.444Z,95434.8
2018-08-09T07:32:53.628Z,95434.6
2018-08-09T07:33:56.272Z,95431.8
2018-08-09T07:34:58.711Z,95430.8
2018-08-09T07:36:00.897Z,95431.1
2018-08-09T07:37:03.077Z,95432.8
2018-08-09T07:38:05.225Z,95426.6
2018-08-09T07:39:07.684Z,95429
2018-08-09T07:40:09.598Z,95430.5
2018-08-09T07:41:11.197Z,95430.9
2018-08-09T07:42:13.410Z,95425.5
2018-08-09T07:43:15.610Z,95428.2
2018-08-09T07:44:17.757Z,95433.5
2018-08-09T07:45:20.217Z,95430.7
2018-08-09T07:46:22.689Z,95427.9
2018-08-09T07:47:24.567Z,95433
2018-08-09T07:48:26.279Z,95431.1
2018-08-09T07:49:28.859Z,95425.5
2018-08-09T07:50:31.367Z,95427.1
2018-08-09T07:51:33.541Z,95426.3
2018-08-09T07:52:35.717Z,95425.4
2018-08-09T07:53:37.899Z,95422.6
2018-08-09T07:54:40.361Z,95424.4
2018-08-09T07:55:42.267Z,95425.7
2018-08-09T07:56:44.711Z,95421.8
2018-08-09T07:57:46.616Z,95416.5
2018-08-09T07:58:48.831Z,95418.2
2018-08-09T07:59:51.274Z,95419.3
2018-08-09T08:00:53.482Z,95416.9
2018-08-09T08:01:55.950Z,95418.4
2018-08-09T08:02:58.121Z,95415.4
2018-08-09T08:04:00.294Z,95412.3
2018-08-09T08:05:02.757Z,95407.7
2018-08-09T08:06:05.070Z,95406.8
2018-08-09T08:07:07.639Z,95408
2018-08-09T08:08:09.787Z,95406.2
2018-08-09T08:09:11.968Z,95407
2018-08-09T08:10:14.414Z,95405.5
2018-08-09T08:11:16.613Z,95409.8
2018-08-09T08:12:18.780Z,95410
2018-08-09T08:13:20.947Z,95412
2018-08-09T08:14:23.124Z,95410.2
2018-08-09T08:15:25.312Z,95405
2018-08-09T08:16:27.765Z,95403.6
2018-08-09T08:17:29.902Z,95405.4
2018-08-09T08:18:32.357Z,95400.5
2018-08-09T08:19:34.275Z,95398.8
2018-08-09T08:20:36.578Z,95396.6
2018-08-09T08:21:39.151Z,95397.9
2018-08-09T08:22:41.346Z,95392.2
2018-08-09T08:23:43.801Z,95393.4
2018-08-09T08:24:45.689Z,95390.2
2018-08-09T08:25:47.880Z,95389.7
2018-08-09T08:26:50.799Z,95387.1
2018-08-09T08:27:53.068Z,95393
2018-08-09T08:28:54.675Z,95389.1
2018-08-09T08:29:57.140Z,95393.1
2018-08-09T08:30:59.577Z,95392.4
2018-08-09T08:32:01.744Z,95388.3
2018-08-09T08:33:03.899Z,95391.1
2018-08-09T08:34:06.070Z,95387.9
2018-08-09T08:35:08.255Z,95389
2018-08-09T08:36:10.443Z,95385.7
2018-08-09T08:37:12.889Z,95386.3
2018-08-09T08:38:15.060Z,95383.5
2018-08-09T08:39:17.519Z,95381.4
2018-08-09T08:40:19.457Z,95380.9
2018-08-09T08:41:22.203Z,95376.4
2018-08-09T08:42:24.410Z,95378.3
2018-08-09T08:43:26.299Z,95369.5
2018-08-09T08:44:28.478Z,95372.6
2018-08-09T08:45:30.918Z,95369.5
2018-08-09T08:46:33.095Z,95374.1
2018-08-09T08:47:35.077Z,95374.8
2018-08-09T08:48:37.531Z,95370.8
2018-08-09T08:49:39.715Z,95369.5
2018-08-09T08:50:41.888Z,95367.2
2018-08-09T08:51:44.048Z,95368.2
2018-08-09T08:52:46.221Z,95364
2018-08-09T08:53:48.657Z,95363.2
2018-08-09T08:54:50.530Z,95365.1
2018-08-09T08:55:52.719Z,95361.7
2018-08-09T08:56:54.594Z,95359.8
2018-08-09T08:57:56.770Z,95356.1
2018-08-09T08:58:58.941Z,95355.8
2018-08-09T09:00:01.094Z,95354.4
2018-08-09T09:01:03.904Z,95355.7
2018-08-09T09:02:06.265Z,95349.1
2018-08-09T09:03:08.526Z,95347.5
2018-08-09T09:04:10.782Z,95345.2
2018-08-09T09:05:13.434Z,95344.7
2018-08-09T09:06:16.167Z,95346.3
2018-08-09T09:07:18.091Z,95344.2
2018-08-09T09:08:20.551Z,95337
2018-08-09T09:09:22.750Z,95341.1
2018-08-09T09:10:24.917Z,95341.2
2018-08-09T09:11:27.099Z,95341.5
2018-08-09T09:12:29.565Z,95339.6
2018-08-09T09:13:32.019Z,95336.5
2018-08-09T09:14:34.178Z,95334.3
2018-08-09T09:15:36.082Z,95335.8
2018-08-09T09:16:38.253Z,95332.7
2018-08-09T09:17:40.712Z,95330.6
2018-08-09T09:18:43.153Z,95327.7
2018-08-09T09:19:45.598Z,95326.6
2018-08-09T09:20:47.504Z,95329.4
2018-08-09T09:21:49.710Z,95327.1
2018-08-09T09:22:51.878Z,95323.5
2018-08-09T09:23:54.329Z,95325.2
2018-08-09T09:24:56.211Z,95323.1
2018-08-09T09:25:58.382Z,95320.1
2018-08-09T09:27:01.114Z,95323.6
2018-08-09T09:28:03.387Z,95324.9
2018-08-09T09:29:05.845Z,95327.8
2018-08-09T09:30:07.716Z,95327.1
2018-08-09T09:31:10.174Z,95329
2018-08-09T09:32:12.351Z,95327.6
2018-08-09T09:33:14.807Z,95329
2018-08-09T09:34:17.261Z,95325.1
2018-08-09T09:35:19.712Z,95330.7
2018-08-09T09:36:21.894Z,95327.6
2018-08-09T09:37:23.789Z,95330.7
2018-08-09T09:38:25.716Z,95327.4
2018-08-09T09:39:27.370Z,95327.4
2018-08-09T09:40:29.540Z,95323.6
2018-08-09T09:41:31.148Z,95327.8
2018-08-09T09:42:33.597Z,95326.2
2018-08-09T09:43:35.787Z,95327.1
2018-08-09T09:44:38.230Z,95329
2018-08-09T09:45:40.700Z,95334.7
2018-08-09T09:46:42.883Z,95336.9
2018-08-09T09:47:45.083Z,95338.1
2018-08-09T09:48:47.575Z,95338.1
2018-08-09T09:49:49.872Z,95335.2
2018-08-09T09:50:52.169Z,95338.6
2018-08-09T09:51:54.355Z,95336.9
2018-08-09T09:52:56.536Z,95337.5
2018-08-09T09:53:58.733Z,95332.7
2018-08-09T09:55:01.362Z,95328.5
2018-08-09T09:56:03.837Z,95325.2
2018-08-09T09:57:06.358Z,95326.2
2018-08-09T09:58:08.812Z,95324.7
2018-08-09T09:59:11.274Z,95323.8
2018-08-09T10:00:13.447Z,95325.8
2018-08-09T10:01:15.889Z,95322.6
2018-08-09T10:02:18.346Z,95316.8
2018-08-09T10:03:20.527Z,95320.1
2018-08-09T10:04:22.709Z,95316
2018-08-09T10:05:24.860Z,95317.8
2018-08-09T10:06:27.034Z,95319.4
2018-08-09T10:07:29.486Z,95314.7
2018-08-09T10:08:31.672Z,95314.8
2018-08-09T10:09:33.908Z,95315.4
2018-08-09T10:10:36.409Z,95312.3
2018-08-09T10:11:38.590Z,95314.5
2018-08-09T10:12:40.873Z,95312.4
2018-08-09T10:13:42.786Z,95310.9
2018-08-09T10:14:45.110Z,95310.6
2018-08-09T10:15:47.351Z,95309.7
2018-08-09T10:16:49.227Z,95306.2
2018-08-09T10:17:51.403Z,95302.9
2018-08-09T10:18:53.874Z,95303.2
2018-08-09T10:19:56.054Z,95298.3
2018-08-09T10:20:58.507Z,95301.1
2018-08-09T10:22:00.972Z,95295.8
2018-08-09T10:23:03.426Z,95293
2018-08-09T10:24:05.617Z,95292.7
2018-08-09T10:25:07.266Z,95291.5
2018-08-09T10:26:09.722Z,95290.2
2018-08-09T10:27:12.178Z,95290.7
2018-08-09T10:28:14.352Z,95290.5
2018-08-09T10:29:16.545Z,95289.5
2018-08-09T10:30:18.720Z,95289.5
2018-08-09T10:31:20.331Z,95285
2018-08-09T10:32:22.210Z,95280.9
2018-08-09T10:33:24.128Z,95280.7
2018-08-09T10:34:26.568Z,95280.1
2018-08-09T10:35:28.597Z,95277.2
2018-08-09T10:36:30.488Z,95276.4
2018-08-09T10:37:32.671Z,95276.5
2018-08-09T10:38:35.131Z,95276.1
2018-08-09T10:39:37.308Z,95277.5
2018-08-09T10:40:39.492Z,95282.1
2018-08-09T10:41:41.936Z,95276.1
2018-08-09T10:42:44.663Z,95275.4
2018-08-09T10:43:46.644Z,95271.4
2018-08-09T10:44:48.857Z,95274
2018-08-09T10:45:51.311Z,95268
2018-08-09T10:46:53.510Z,95268
2018-08-09T10:48:10.350Z,95270.4
2018-08-09T10:49:12.260Z,95268.7
2018-08-09T10:50:14.714Z,95268.7
2018-08-09T10:51:16.869Z,95267.4
2018-08-09T10:52:18.481Z,95266.8
2018-08-09T10:53:20.669Z,95265.8
2018-08-09T10:54:22.853Z,95261.8
2018-08-09T10:55:24.759Z,95261
2018-08-09T10:56:26.627Z,95264.1
2018-08-09T10:57:28.801Z,95262.1
2018-08-09T10:58:30.996Z,95257
2018-08-09T10:59:33.184Z,95261.4
2018-08-09T11:00:35.634Z,95262.4
2018-08-09T11:01:37.840Z,95258.3
2018-08-09T11:02:40.327Z,95257.4
2018-08-09T11:03:42.508Z,95252.8
2018-08-09T11:04:44.946Z,95251.2
2018-08-09T11:05:47.130Z,95248.5
2018-08-09T11:06:49.588Z,95244.1
2018-08-09T11:07:51.776Z,95247
2018-08-09T11:08:54.229Z,95248.6
2018-08-09T11:09:56.407Z,95250.6
2018-08-09T11:10:58.592Z,95244.8
2018-08-09T11:12:01.038Z,95246.2
2018-08-09T11:13:03.490Z,95245.1
2018-08-09T11:14:05.693Z,95247.2
2018-08-09T11:15:08.029Z,95242.1
2018-08-09T11:16:10.304Z,95237
2018-08-09T11:17:12.498Z,95236.3
2018-08-09T11:18:14.945Z,95235.4
2018-08-09T11:19:17.398Z,95234.1
2018-08-09T11:20:19.565Z,95232.4
2018-08-09T11:21:22.018Z,95231.3
2018-08-09T11:22:24.479Z,95231.5
2018-08-09T11:23:26.648Z,95233.1
2018-08-09T11:24:29.102Z,95234.1
2018-08-09T11:25:30.967Z,95232.3
2018-08-09T11:26:32.880Z,95238.8
2018-08-09T11:27:34.480Z,95232.2
2018-08-09T11:28:36.939Z,95240.6
2018-08-09T11:29:39.113Z,95237.9
2018-08-09T11:30:41.570Z,95237.6
2018-08-09T11:31:44.038Z,95238.4
2018-08-09T11:32:46.499Z,95237.7
2018-08-09T11:33:48.952Z,95238.8
2018-08-09T11:34:51.130Z,95235.5
2018-08-09T11:35:53.304Z,95243.9
2018-08-09T11:36:55.752Z,95244.9
2018-08-09T11:37:58.213Z,95240.9
2018-08-09T11:39:00.390Z,95243.3
2018-08-09T11:40:17.488Z,95239.4
2018-08-09T11:41:19.389Z,95238
2018-08-09T11:42:21.556Z,95234
2018-08-09T11:43:23.178Z,95231
2018-08-09T11:44:25.348Z,95230.2
2018-08-09T11:45:27.548Z,95230.7
2018-08-09T11:46:29.727Z,95230.8
2018-08-09T11:47:31.909Z,95231.6
2018-08-09T11:48:33.848Z,95238.3
2018-08-09T11:49:35.480Z,95236
2018-08-09T11:50:37.662Z,95230.5
2018-08-09T11:51:39.843Z,95241
2018-08-09T11:52:42.291Z,95239.5
2018-08-09T11:53:44.746Z,95234.1
2018-08-09T11:54:47.198Z,95232.2
2018-08-09T11:55:49.372Z,95231.4
2018-08-09T11:56:51.571Z,95227.6
2018-08-09T11:57:53.771Z,95227.6
2018-08-09T11:58:55.954Z,95222.5
2018-08-09T11:59:58.399Z,95223.2
2018-08-09T12:01:00.882Z,95222.2
2018-08-09T12:02:03.330Z,95224
2018-08-09T12:03:05.774Z,95225.9
2018-08-09T12:04:07.661Z,95224.3
2018-08-09T12:05:09.918Z,95223
2018-08-09T12:06:12.357Z,95222.7
2018-08-09T12:07:14.812Z,95226
2018-08-09T12:08:16.640Z,95231.1
2018-08-09T12:09:18.298Z,95227.9
2018-08-09T12:10:20.781Z,95223.7
2018-08-09T12:11:23.239Z,95223.3
2018-08-09T12:12:25.689Z,95222.7
2018-08-09T12:13:28.273Z,95218.7
2018-08-09T12:14:30.228Z,95218
2018-08-09T12:15:32.410Z,95217.7
2018-08-09T12:16:34.583Z,95216.9
2018-08-09T12:17:37.042Z,95218.9
2018-08-09T12:18:39.231Z,95214.3
2018-08-09T12:19:41.686Z,95211
2018-08-09T12:20:44.233Z,95206.5
2018-08-09T12:21:46.849Z,95201.7
2018-08-09T12:22:48.507Z,95205.7
2018-08-09T12:23:50.949Z,95204.1
2018-08-09T12:24:53.130Z,95207.4
2018-08-09T12:25:55.306Z,95203.1
2018-08-09T12:26:57.312Z,95203.1
2018-08-09T12:27:59.595Z,95203
2018-08-09T12:29:01.781Z,95204.9
2018-08-09T12:30:03.692Z,95201.6
2018-08-09T12:31:06.154Z,95195.4
2018-08-09T12:32:08.341Z,95196
2018-08-09T12:33:10.581Z,95191.7
2018-08-09T12:34:13.091Z,95191.9
2018-08-09T12:35:14.985Z,95190
2018-08-09T12:36:16.894Z,95185.8
2018-08-09T12:37:19.063Z,95190
2018-08-09T12:38:21.537Z,95184.8